Winchester, VA

11:09 PM EDT on June 02, 2015 (GMT -0400)
Winchester Regional | | Change Station
CLOSE
Current Station
Airport
Location: Winchester,
Elevation: 728 ft
Nearby Weather Stations

Elev 728 ft 39.14 °N, 78.14 °W | Updated 14 minutes ago

Overcast
Overcast
59 °F
Feels Like 59 °F
N
0
Wind Variable Wind from North

Today
High -- | Low -- °F
--% Chance of Precip.
Yesterday
High -- | Low -- °F
Precip. -- in
5:48 AM 8:33 PM
Full, 100% visible
Pressure 30.15 in
Visibility 5.0 miles
Clouds Overcast 500 ft
Dew Point 59 °F
Humidity 100%
Rainfall 0.52 in
Snow Depth Not available.
UV 0 out of 12
Pollen .40 out of 12
Air Quality Not available.
Flu Activity Sporadic
METAR KOKV 030255Z AUTO 00000KT 5SM BR OVC005 15/15 A3015 RMK AO2

More Conditions Fewer Conditions

Pressure 30.15 in
Visibility 5.0 miles
Clouds Overcast 500 ft
Dew Point 59 °F
Humidity 100%
Rainfall 0.52 in
Snow Depth Not available.
UV 0 out of 12
Pollen .40 out of 12
Air Quality Not available.
Flu Activity Sporadic
METAR KOKV 030255Z AUTO 00000KT 5SM BR OVC005 15/15 A3015 RMK AO2

More Conditions Fewer Conditions

10-Day Weather Forecast

×

Almanac

Astronomy

Jun. 02, 2015 Rise Set
Actual Time
Civil Twilight
Nautical Twilight
Astronomical Twilight
Moon
Length of Visible Light
Length of Day
Tomorrow will be .
, % of the Moon is Illuminated

Today's Extremes

State Highs State Lows

Community

WunderPhotos

Upload Photos

1,826,133 photos uploaded!

WunderBlogs® & News

Nearby

Air Quality

  Air Quality AQ Index Pollutant
Not available.

Snow Depth

Station Depth Elevation

Earthquake Activity

City Distance Mag. Time & Date
Minimum magnitude displayed is 2.5.

Coastal Water Temperatures

Place Temperature

Stations

Nearby Weather Stations

Station Location Temp. Windchill Dew Point Humidity Wind Precip. Elev Updated Type